Saturday, October 20, 2018, 9:36 PM EDT
Back to Local

KMHT, Manchester Airport

Location: Manchester, NH, United States Lat: 42.933
Local Time: 9:36 PM EDT ( 1:36 GMT) Lon: -71.433
Time Zone: US/Eastern Elev: 232 ft

Show me the last for .
Show Decoded

2018-10-20 20:53 METAR KMHT 210053Z 17003KT 10SM FEW090 10/05 A2955 RMK AO2 SLP019 T01000050 =
2018-10-20 19:53 METAR KMHT 202353Z 00000KT 10SM BKN090 11/06 A2955 RMK AO2 SLP018 T01110056
                 10172 20111 53008 =
2018-10-20 18:53 METAR KMHT 202253Z 23005KT 10SM FEW090 13/04 A2954 RMK AO2 SLP015 T01330044 =
2018-10-20 17:53 METAR KMHT 202153Z 23005KT 10SM FEW090 15/05 A2952 RMK AO2 SLP009 T01500050 =
2018-10-20 16:53 METAR KMHT 202053Z 24007KT 10SM FEW050 17/03 A2952 RMK AO2 SLP010 T01670033
                 56010 =
2018-10-20 15:53 METAR KMHT 201953Z VRB06G17KT 10SM FEW050 17/04 A2953 RMK AO2 SLP010 T01670039 =
2018-10-20 14:53 METAR KMHT 201853Z 24013G22KT 10SM FEW050 16/05 A2954 RMK AO2 SLP016 T01610050 =
2018-10-20 13:53 METAR KMHT 201753Z 24009KT 10SM SCT043 17/06 A2956 RMK AO2 SLP020 T01720061
                 10172 20133 58018 =
2018-10-20 12:53 METAR KMHT 201653Z 23008KT 10SM BKN035 OVC049 16/08 A2958 RMK AO2 SLP028
                 T01610078 =
2018-10-20 11:53 METAR KMHT 201553Z 24008G18KT 10SM BKN035 OVC042 16/08 A2959 RMK AO2 SLP034
                 T01560078 =
2018-10-20 10:53 METAR KMHT 201453Z 22009G20KT 10SM SCT033 BKN041 OVC055 14/08 A2961 RMK AO2
                 SLP040 T01440078 58004 =
2018-10-20 09:53 METAR KMHT 201353Z 22009G18KT 10SM BKN030 OVC043 14/08 A2962 RMK AO2 SLP043
                 T01440078 =
2018-10-20 09:45 METAR KMHT 201345Z 23010G16KT 10SM BKN030 OVC043 14/08 A2962 RMK AO2 T01390078 =
2018-10-20 08:53 METAR KMHT 201253Z 22011G17KT 10SM BKN029 OVC040 13/08 A2962 RMK AO2 SLP045
                 T01330078 =
2018-10-20 08:08 METAR KMHT 201208Z 23007G15KT 10SM BKN029 OVC045 13/07 A2963 RMK AO2 T01330072 =
2018-10-20 07:53 METAR KMHT 201153Z 22008KT 10SM BKN033 OVC070 13/07 A2962 RMK AO2 SLP044
                 T01330067 10133 20117 55016 =
2018-10-20 06:53 METAR KMHT 201053Z 20008KT 10SM SCT046 OVC055 13/06 A2961 RMK AO2 SLP039
                 T01330061 =
2018-10-20 05:53 METAR KMHT 200953Z 20008KT 10SM OVC065 13/06 A2964 RMK AO2 SLP049 T01330056 =
2018-10-20 04:53 METAR KMHT 200853Z 18006KT 10SM BKN070 BKN200 12/06 A2967 RMK AO2 SLP060
                 T01220061 56027 =
2018-10-20 03:53 METAR KMHT 200753Z 18009KT 10SM BKN100 OVC200 12/06 A2970 RMK AO2 SLP069
                 T01170056 =
2018-10-20 02:53 METAR KMHT 200653Z 18009KT 10SM BKN120 OVC200 12/05 A2971 RMK AO2 SLP074
                 T01220050 =
2018-10-20 01:53 METAR KMHT 200553Z 21011G18KT 10SM FEW150 OVC200 13/04 A2975 RMK AO2 SLP087
                 T01280044 10128 20117 58023 =
2018-10-20 00:53 METAR KMHT 200453Z 21008KT 10SM OVC200 12/03 A2979 RMK AO2 SLP102 T01220028
                 401611011 =
2018-10-19 23:53 METAR KMHT 200353Z COR 20008KT 10SM OVC200 12/01 A2981 RMK AO2 SLP108 T01220011
                 =
2018-10-19 22:53 METAR KMHT 200253Z 17010KT 10SM OVC200 12/01 A2982 RMK AO2 PRESFR SLP111
                 T01170011 58028 =
2018-10-19 21:53 METAR KMHT 200153Z 18006KT 10SM OVC200 12/02 A2987 RMK AO2 SLP130 T01170022 =

Support USWX by starting your Amazon purchase here.